Hardinville, Illinois
Current Conditions -  °F | °C
As of 5:55 PM on Wednesday 22 Oct 2014 (Local Time) from KRSV Reporting Station
Clear Clear  
Wind Chill: 58°   Ceiling: Unl
Heat Index: 58°   Visibility: 10mi
Dew Point: 43°   Wind: 3mph
Humidity: 57%   Direction: 20°NNE
Pressure: 30.25"   Gusts: NA
Location:  39.0131°N, 87.7657°W
Report Text: KRSV 222255Z AUTO 02003KT 10SM CLR 15/06 A3025 RMK AO2 T01450061
Loading
Personal Weather Stations






























Interactive Weather Map
Tropical Storm Tracking
New forecast layout! Learn more

10-Day Weather Forecast

Advertisements
Track Severe Weather on mobile